createdAt,value
2022-11-06T00:04:09.207Z,13.18
2022-11-06T00:09:13.606Z,12.69
2022-11-06T00:14:17.516Z,10.44
2022-11-06T00:19:20.376Z,11.04
2022-11-06T00:24:23.280Z,12.34
2022-11-06T00:29:26.187Z,12.54
2022-11-06T00:34:29.139Z,12.62
2022-11-06T00:39:31.990Z,12.76
2022-11-06T00:44:34.895Z,12.79
2022-11-06T00:49:39.128Z,12.87
2022-11-06T00:54:42.239Z,12.30
2022-11-06T00:59:45.142Z,10.02
2022-11-06T01:04:48.148Z,10.16
2022-11-06T01:09:51.053Z,11.25
2022-11-06T01:14:53.958Z,11.86
2022-11-06T01:19:56.965Z,12.19
2022-11-06T01:24:59.935Z,12.47
2022-11-06T01:30:03.354Z,11.81
2022-11-06T01:35:06.645Z,9.52
2022-11-06T01:40:11.345Z,10.18
2022-11-06T01:45:26.389Z,11.23
2022-11-06T01:50:29.741Z,11.80
2022-11-06T01:55:40.195Z,12.06
2022-11-06T02:00:43.832Z,12.20
2022-11-06T02:05:47.641Z,12.31
2022-11-06T02:10:51.519Z,11.66
2022-11-06T02:16:16.626Z,9.67
2022-11-06T02:21:34.691Z,10.69
2022-11-06T02:27:02.883Z,11.55
2022-11-06T02:32:11.417Z,12.02
2022-11-06T02:37:20.815Z,11.14
2022-11-06T02:42:27.361Z,9.56
2022-11-06T02:47:33.447Z,10.71
2022-11-06T02:52:50.789Z,11.42
2022-11-06T02:57:59.524Z,11.76
2022-11-06T03:03:09.287Z,11.03
2022-11-06T03:08:19.268Z,9.04
2022-11-06T03:13:32.916Z,10.13
2022-11-06T03:18:43.341Z,11.04
2022-11-06T03:23:53.877Z,11.48
2022-11-06T03:28:59.653Z,10.89
2022-11-06T03:34:07.625Z,8.50
2022-11-06T03:39:17.335Z,8.77
2022-11-06T03:44:25.294Z,10.19
2022-11-06T03:49:42.399Z,10.66
2022-11-06T03:55:08.524Z,9.85
2022-11-06T04:00:12.569Z,8.48
2022-11-06T04:05:22.917Z,10.04
2022-11-06T04:10:44.495Z,10.30
2022-11-06T04:15:53.952Z,7.76
2022-11-06T04:21:27.577Z,7.11
2022-11-06T04:26:37.033Z,9.15
2022-11-06T04:31:50.714Z,10.32
2022-11-06T04:37:00.352Z,8.95
2022-11-06T04:42:17.803Z,6.42
2022-11-06T04:47:23.060Z,6.25
2022-11-06T04:52:28.770Z,8.27
2022-11-06T04:57:31.735Z,9.20
2022-11-06T05:02:34.659Z,9.30
2022-11-06T05:07:37.541Z,7.13
2022-11-06T05:12:40.450Z,7.66
2022-11-06T05:17:43.456Z,9.04
2022-11-06T05:22:58.542Z,9.90
2022-11-06T05:28:02.569Z,10.37
2022-11-06T05:33:05.581Z,10.52
2022-11-06T05:38:08.589Z,9.80
2022-11-06T05:43:11.487Z,7.37
2022-11-06T05:48:14.912Z,7.61
2022-11-06T05:53:18.421Z,9.40
2022-11-06T05:58:21.943Z,10.40
2022-11-06T06:03:30.683Z,9.65
2022-11-06T06:08:33.585Z,8.48
2022-11-06T06:13:40.178Z,9.95
2022-11-06T06:18:43.185Z,10.79
2022-11-06T06:23:46.457Z,11.36
2022-11-06T06:28:49.811Z,11.52
2022-11-06T06:33:53.023Z,11.88
2022-11-06T06:38:56.030Z,11.35
2022-11-06T06:43:59.343Z,10.22
2022-11-06T06:49:04.834Z,13.07
2022-11-06T06:54:08.027Z,13.52
2022-11-06T06:59:11.041Z,12.43
2022-11-06T07:04:13.938Z,14.75
2022-11-06T07:09:16.934Z,15.54
2022-11-06T07:14:19.939Z,15.00
2022-11-06T07:19:23.066Z,14.76
2022-11-06T07:24:26.065Z,13.71
2022-11-06T07:29:31.515Z,12.22
2022-11-06T07:34:34.964Z,12.27
2022-11-06T07:39:37.944Z,13.09
2022-11-06T07:44:40.843Z,14.12
2022-11-06T07:49:49.673Z,14.68
2022-11-06T07:54:53.925Z,14.81
2022-11-06T07:59:56.826Z,14.32
2022-11-06T08:04:59.730Z,13.13
2022-11-06T08:10:03.023Z,13.03
2022-11-06T08:15:06.610Z,14.03
2022-11-06T08:20:10.292Z,12.85
2022-11-06T08:25:13.292Z,13.69
2022-11-06T08:30:16.299Z,14.49
2022-11-06T08:35:19.235Z,13.74
2022-11-06T08:40:26.487Z,15.56
2022-11-06T08:45:32.489Z,13.88
2022-11-06T08:50:40.522Z,13.17
2022-11-06T08:55:44.518Z,13.69
2022-11-06T09:00:47.624Z,13.33
2022-11-06T09:05:50.555Z,14.45
2022-11-06T09:10:58.355Z,14.53
2022-11-06T09:16:02.403Z,13.70
2022-11-06T09:21:05.820Z,14.74
2022-11-06T09:26:08.723Z,14.65
2022-11-06T09:31:11.625Z,13.49
2022-11-06T09:36:14.635Z,14.60
2022-11-06T09:41:58.089Z,14.84
2022-11-06T09:47:09.697Z,13.92
2022-11-06T09:52:17.669Z,14.76
2022-11-06T09:57:58.820Z,13.47
2022-11-06T10:03:26.915Z,14.44
2022-11-06T10:08:30.860Z,15.32
2022-11-06T10:13:51.977Z,14.05
2022-11-06T10:19:24.577Z,14.78
2022-11-06T10:24:36.391Z,14.74
2022-11-06T10:29:55.779Z,13.69
2022-11-06T10:35:13.531Z,14.65
2022-11-06T10:40:22.405Z,15.18
2022-11-06T10:45:28.845Z,14.76
2022-11-06T10:50:56.753Z,13.51
2022-11-06T10:56:11.609Z,14.81
2022-11-06T11:01:16.226Z,13.92
2022-11-06T11:06:19.391Z,13.50
2022-11-06T11:11:27.436Z,14.86
2022-11-06T11:16:34.904Z,14.47
2022-11-06T11:21:38.044Z,14.59
2022-11-06T11:26:47.594Z,15.03
2022-11-06T11:31:53.116Z,14.45
2022-11-06T11:37:05.196Z,15.64
2022-11-06T11:42:29.832Z,15.30
2022-11-06T11:47:32.796Z,14.63
2022-11-06T11:52:41.947Z,15.83
2022-11-06T11:57:49.137Z,15.18
2022-11-06T12:02:57.958Z,15.06
2022-11-06T12:08:03.559Z,15.59
2022-11-06T12:13:25.659Z,14.75
2022-11-06T12:18:41.155Z,15.80
2022-11-06T12:23:49.038Z,14.95
2022-11-06T12:29:02.045Z,14.97
2022-11-06T12:34:20.152Z,15.63
2022-11-06T12:39:29.838Z,14.13
2022-11-06T12:44:32.913Z,14.55
2022-11-06T12:49:51.075Z,14.95
2022-11-06T12:55:12.280Z,13.62
2022-11-06T13:00:21.249Z,14.79
2022-11-06T13:05:38.090Z,14.64
2022-11-06T13:10:43.605Z,13.45
2022-11-06T13:16:04.734Z,14.49
2022-11-06T13:21:20.691Z,13.23
2022-11-06T13:26:45.938Z,13.93
2022-11-06T13:31:57.481Z,13.27
2022-11-06T13:37:03.884Z,12.87
2022-11-06T13:42:22.153Z,14.08
2022-11-06T13:48:05.016Z,12.58
2022-11-06T13:53:24.409Z,12.37
2022-11-06T13:58:39.191Z,14.14
2022-11-06T14:04:08.309Z,13.81
2022-11-06T14:09:19.711Z,12.09
2022-11-06T14:14:22.612Z,13.05
2022-11-06T14:19:27.089Z,13.56
2022-11-06T14:24:34.564Z,11.86
2022-11-06T14:29:37.470Z,12.50
2022-11-06T14:34:42.848Z,13.07
2022-11-06T14:39:51.714Z,11.59
2022-11-06T14:45:08.483Z,12.40
2022-11-06T14:50:26.359Z,12.85
2022-11-06T14:55:59.882Z,11.11
2022-11-06T15:01:15.105Z,11.79
2022-11-06T15:06:17.976Z,12.83
2022-11-06T15:11:30.237Z,12.03
2022-11-06T15:16:41.093Z,10.17
2022-11-06T15:21:49.421Z,10.51
2022-11-06T15:26:57.405Z,11.95
2022-11-06T15:32:10.591Z,12.82
2022-11-06T15:37:19.346Z,12.49
2022-11-06T15:42:29.609Z,10.38
2022-11-06T15:47:33.333Z,9.88
2022-11-06T15:52:36.451Z,11.49
2022-11-06T15:57:39.549Z,12.32
2022-11-06T16:03:02.730Z,11.80
2022-11-06T16:08:06.888Z,9.66
2022-11-06T16:13:15.026Z,9.23
2022-11-06T16:18:24.448Z,10.94
2022-11-06T16:23:39.755Z,11.89
2022-11-06T16:28:45.498Z,12.42
2022-11-06T16:34:20.570Z,11.02
2022-11-06T16:39:40.172Z,9.77
2022-11-06T16:45:16.927Z,10.96
2022-11-06T16:50:38.508Z,11.46
2022-11-06T16:55:41.731Z,11.53
2022-11-06T17:00:44.863Z,9.86
2022-11-06T17:05:56.337Z,8.91
2022-11-06T17:11:17.157Z,10.05
2022-11-06T17:16:28.788Z,10.52
2022-11-06T17:21:31.668Z,10.75
2022-11-06T17:26:36.539Z,11.14
2022-11-06T17:31:39.777Z,11.71
2022-11-06T17:36:43.381Z,11.39
2022-11-06T17:41:46.463Z,9.24
2022-11-06T17:46:49.569Z,8.55
2022-11-06T17:52:01.489Z,10.04
2022-11-06T17:57:08.430Z,11.01
2022-11-06T18:02:35.232Z,11.42
2022-11-06T18:07:46.375Z,10.01
2022-11-06T18:12:51.721Z,9.15
2022-11-06T18:17:55.138Z,10.39
2022-11-06T18:23:01.546Z,10.96
2022-11-06T18:28:07.767Z,11.12
2022-11-06T18:33:14.294Z,9.21
2022-11-06T18:38:17.474Z,8.97
2022-11-06T18:43:20.501Z,9.90
2022-11-06T18:48:23.718Z,10.50
2022-11-06T18:53:27.024Z,10.89
2022-11-06T18:58:30.232Z,10.10
2022-11-06T19:03:36.274Z,8.91
2022-11-06T19:08:39.975Z,9.75
2022-11-06T19:13:47.555Z,10.21
2022-11-06T19:24:05.806Z,10.71
2022-11-06T19:29:09.671Z,10.64
2022-11-06T19:34:14.023Z,9.06
2022-11-06T19:39:19.165Z,9.62
2022-11-06T19:44:22.177Z,10.17
2022-11-06T19:49:25.700Z,10.27
2022-11-06T19:54:28.700Z,10.45
2022-11-06T19:59:31.833Z,10.70
2022-11-06T20:04:34.816Z,10.86
2022-11-06T20:09:37.717Z,10.93
2022-11-06T20:14:40.723Z,9.06
2022-11-06T20:19:43.598Z,8.46
2022-11-06T20:24:46.634Z,9.57
2022-11-06T20:29:49.743Z,10.30
2022-11-06T20:34:53.672Z,11.19
2022-11-06T20:39:57.508Z,8.95
2022-11-06T20:45:01.105Z,8.67
2022-11-06T20:50:04.274Z,10.44
2022-11-06T20:55:08.030Z,11.52
2022-11-06T21:00:12.130Z,8.95
2022-11-06T21:05:15.500Z,8.63
2022-11-06T21:10:18.400Z,9.82
2022-11-06T21:15:21.357Z,10.24
2022-11-06T21:20:24.417Z,10.73
2022-11-06T21:25:27.421Z,11.03
2022-11-06T21:30:30.326Z,10.17
2022-11-06T21:35:33.174Z,8.66
2022-11-06T21:40:40.561Z,9.36
2022-11-06T21:45:43.440Z,9.69
2022-11-06T21:50:46.346Z,9.79
2022-11-06T21:56:02.048Z,10.19
2022-11-06T22:01:05.798Z,10.32
2022-11-06T22:06:11.328Z,10.34
2022-11-06T22:11:23.607Z,10.51
2022-11-06T22:16:29.895Z,10.69
2022-11-06T22:21:33.873Z,10.91
2022-11-06T22:26:37.868Z,10.39
2022-11-06T22:31:41.093Z,8.70
2022-11-06T22:36:44.224Z,9.26
2022-11-06T22:41:47.130Z,9.66
2022-11-06T22:46:50.253Z,9.71
2022-11-06T22:51:53.654Z,9.68
2022-11-06T22:56:56.559Z,9.52
2022-11-06T23:01:59.594Z,9.50
2022-11-06T23:07:03.086Z,9.51
2022-11-06T23:12:06.473Z,9.50
2022-11-06T23:17:09.506Z,9.51
2022-11-06T23:22:31.161Z,9.68
2022-11-06T23:27:34.730Z,9.81
2022-11-06T23:32:39.312Z,9.48
2022-11-06T23:37:42.726Z,9.51
2022-11-06T23:42:48.913Z,9.49
2022-11-06T23:47:51.918Z,9.46
2022-11-06T23:52:54.830Z,9.54
2022-11-06T23:57:57.725Z,9.61
